Time;durP1;ratioP1;P1;durP2;ratioP2;P2;SDS_P1;SDS_P2;PMS_P1;PMS_P2;Temp;Humidity;BMP_temperature;BMP_pressure;BME280_temperature;BME280_humidity;BME280_pressure;Samples;Min_cycle;Max_cycle;Signal;HPM_P1;HPM_P2
2022/08/03 00:01:35;;;;;;;1.58;1.48;;;;;;;;;;5067188;28;20370;-82
2022/08/03 00:04:01;;;;;;;1.67;1.58;;;;;;;;;;5067237;28;20933;-82
2022/08/03 00:06:27;;;;;;;1.58;1.48;;;;;;;;;;5073860;28;20379;-82
2022/08/03 00:08:53;;;;;;;3.33;1.80;;;;;;;;;;5074316;28;20388;-82
2022/08/03 00:11:20;;;;;;;1.92;1.83;;;;;;;;;;5073955;28;20391;-82
2022/08/03 00:13:46;;;;;;;1.83;1.60;;;;;;;;;;5073921;28;20740;-82
2022/08/03 00:16:12;;;;;;;1.70;1.50;;;;;;;;;;5073745;28;20399;-82
2022/08/03 00:18:38;;;;;;;2.05;1.58;;;;;;;;;;5072393;28;20939;-82
2022/08/03 00:21:04;;;;;;;1.73;1.63;;;;;;;;;;5073819;28;20384;-82
2022/08/03 00:23:30;;;;;;;1.80;1.67;;;;;;;;;;5073627;28;20422;-82
2022/08/03 00:25:56;;;;;;;1.85;1.75;;;;;;;;;;5073589;28;20368;-82
2022/08/03 00:28:23;;;;;;;1.80;1.70;;;;;;;;;;5073358;28;20426;-82
2022/08/03 00:30:49;;;;;;;1.70;1.60;;;;;;;;;;5073445;28;20795;-82
2022/08/03 00:33:15;;;;;;;1.70;1.60;;;;;;;;;;5073482;28;20406;-82
2022/08/03 00:35:41;;;;;;;1.57;1.47;;;;;;;;;;5073493;28;20449;-82
2022/08/03 00:38:07;;;;;;;1.83;1.70;;;;;;;;;;5073225;28;20884;-82
2022/08/03 00:40:33;;;;;;;1.73;1.63;;;;;;;;;;5073414;28;20467;-82
2022/08/03 00:43:01;;;;;;;1.70;1.60;;;;;;;;;;5073322;28;20384;-82
2022/08/03 00:45:32;;;;;;;3.15;1.85;;;;;;;;;;5072512;28;20380;-82
2022/08/03 00:47:58;;;;;;;1.90;1.80;;;;;;;;;;5073094;28;20734;-82
2022/08/03 00:50:25;;;;;;;1.83;1.70;;;;;;;;;;5073151;28;20419;-82
2022/08/03 00:52:52;;;;;;;1.80;1.55;;;;;;;;;;5072998;28;20393;-82
2022/08/03 00:55:18;;;;;;;1.90;1.80;;;;;;;;;;5073089;28;20470;-82
2022/08/03 00:57:45;;;;;;;2.55;1.90;;;;;;;;;;5072998;28;20402;-82
2022/08/03 01:00:11;;;;;;;1.70;1.60;;;;;;;;;;5072979;28;20726;-82
2022/08/03 01:02:38;;;;;;;2.00;1.90;;;;;;;;;;5071623;28;20865;-82
2022/08/03 01:05:05;;;;;;;1.80;1.70;;;;;;;;;;5067221;28;20383;-82
2022/08/03 01:07:42;;;;;;;1.70;1.50;;;;;;;;;;5062660;28;20383;-82
2022/08/03 01:10:27;;;;;;;1.80;1.70;;;;;;;;;;5069165;28;20408;-82
2022/08/03 01:13:06;;;;;;;1.70;1.60;;;;;;;;;;5052374;28;20511;-82
2022/08/03 01:16:04;;;;;;;2.00;1.80;;;;;;;;;;5044891;28;20375;-82
2022/08/03 01:18:36;;;;;;;1.75;1.65;;;;;;;;;;5038907;28;20472;-82
2022/08/03 01:21:03;;;;;;;2.17;1.90;;;;;;;;;;5072951;28;20390;-82
2022/08/03 01:23:48;;;;;;;2.00;1.70;;;;;;;;;;5072499;28;20433;-82
2022/08/03 01:26:20;;;;;;;1.80;1.70;;;;;;;;;;5072460;28;20391;-82
2022/08/03 01:28:52;;;;;;;1.90;1.80;;;;;;;;;;5060714;28;20779;-82
2022/08/03 01:31:21;;;;;;;2.30;1.90;;;;;;;;;;5072505;28;20376;-82
2022/08/03 01:33:52;;;;;;;2.60;1.67;;;;;;;;;;5072365;28;20474;-81
2022/08/03 01:36:22;;;;;;;2.00;1.88;;;;;;;;;;5056493;28;20408;-82
2022/08/03 01:38:55;;;;;;;2.45;1.88;;;;;;;;;;5067114;28;20403;-82
2022/08/03 01:41:24;;;;;;;1.88;1.77;;;;;;;;;;5070192;28;20379;-82
2022/08/03 01:43:51;;;;;;;2.00;1.90;;;;;;;;;;5070594;28;20426;-82
2022/08/03 01:46:19;;;;;;;2.30;1.63;;;;;;;;;;5071681;28;20375;-82
2022/08/03 01:48:46;;;;;;;1.90;1.80;;;;;;;;;;5063819;28;20440;-82
2022/08/03 01:51:13;;;;;;;1.90;1.70;;;;;;;;;;5072059;28;20456;-82
2022/08/03 01:53:41;;;;;;;2.00;1.80;;;;;;;;;;5072282;28;20841;-82
2022/08/03 01:56:08;;;;;;;1.90;1.80;;;;;;;;;;5071981;28;20379;-82
2022/08/03 01:58:35;;;;;;;2.00;1.80;;;;;;;;;;5072147;28;20403;-82
2022/08/03 02:01:02;;;;;;;2.05;1.88;;;;;;;;;;5072087;28;20383;-82
2022/08/03 02:03:29;;;;;;;2.10;2.00;;;;;;;;;;5072134;28;20733;-82
2022/08/03 02:05:56;;;;;;;2.00;1.90;;;;;;;;;;5071947;28;20454;-82
2022/08/03 02:08:23;;;;;;;2.00;1.60;;;;;;;;;;5072022;28;20437;-82
2022/08/03 02:10:50;;;;;;;1.90;1.80;;;;;;;;;;5072209;28;20383;-81
2022/08/03 02:13:17;;;;;;;1.85;1.75;;;;;;;;;;5071966;28;20468;-82
2022/08/03 02:15:43;;;;;;;1.88;1.77;;;;;;;;;;5071924;28;20391;-82
2022/08/03 02:18:10;;;;;;;1.90;1.80;;;;;;;;;;5071901;28;20880;-82
2022/08/03 02:20:38;;;;;;;1.70;1.60;;;;;;;;;;5057678;28;20375;-82
2022/08/03 02:23:05;;;;;;;2.10;1.80;;;;;;;;;;5071886;28;20375;-82
2022/08/03 02:25:32;;;;;;;2.17;1.98;;;;;;;;;;5071876;28;20380;-82
2022/08/03 02:28:01;;;;;;;2.25;2.10;;;;;;;;;;5071820;28;20379;-82
2022/08/03 02:30:33;;;;;;;2.15;2.00;;;;;;;;;;5071779;28;20390;-82
2022/08/03 02:33:00;;;;;;;1.95;1.85;;;;;;;;;;5072327;28;20470;-82
2022/08/03 02:35:28;;;;;;;1.90;1.80;;;;;;;;;;5071801;28;20991;-82
2022/08/03 02:37:57;;;;;;;2.03;1.90;;;;;;;;;;5071588;28;20404;-82
2022/08/03 02:40:24;;;;;;;1.90;1.80;;;;;;;;;;5071695;28;20435;-82
2022/08/03 02:42:52;;;;;;;1.88;1.77;;;;;;;;;;5071735;28;20375;-82
2022/08/03 02:45:19;;;;;;;1.97;1.87;;;;;;;;;;5071873;28;20379;-83
2022/08/03 02:47:47;;;;;;;1.77;1.67;;;;;;;;;;5071542;28;20911;-82
2022/08/03 02:50:15;;;;;;;1.98;1.88;;;;;;;;;;5071918;28;20384;-81
2022/08/03 02:52:44;;;;;;;2.00;1.77;;;;;;;;;;5071553;28;20406;-82
2022/08/03 02:55:10;;;;;;;2.05;1.95;;;;;;;;;;5071655;28;20392;-81
2022/08/03 02:57:36;;;;;;;2.25;2.05;;;;;;;;;;5071406;28;20380;-81
2022/08/03 03:00:03;;;;;;;1.88;1.73;;;;;;;;;;5071404;28;20388;-82
2022/08/03 03:02:30;;;;;;;1.80;1.70;;;;;;;;;;5071232;28;20414;-82
2022/08/03 03:04:56;;;;;;;1.80;1.70;;;;;;;;;;5056834;28;20936;-82
2022/08/03 03:07:23;;;;;;;1.98;1.88;;;;;;;;;;5071787;28;20409;-81
2022/08/03 03:09:49;;;;;;;2.33;2.17;;;;;;;;;;5074290;28;20380;-81
2022/08/03 03:12:15;;;;;;;2.03;1.70;;;;;;;;;;5062627;28;20430;-81
2022/08/03 03:14:41;;;;;;;1.90;1.80;;;;;;;;;;5061448;28;20390;-81
2022/08/03 03:17:08;;;;;;;1.90;1.80;;;;;;;;;;5069732;28;20396;-81
2022/08/03 03:19:34;;;;;;;2.15;1.95;;;;;;;;;;5054462;28;20393;-81
2022/08/03 03:22:01;;;;;;;1.75;1.58;;;;;;;;;;5058154;28;20390;-82
2022/08/03 03:24:29;;;;;;;1.77;1.65;;;;;;;;;;5074858;28;20372;-81
2022/08/03 03:26:55;;;;;;;2.13;1.98;;;;;;;;;;5074665;28;20784;-81
2022/08/03 03:29:21;;;;;;;1.90;1.80;;;;;;;;;;5074968;28;20702;-81
2022/08/03 03:31:47;;;;;;;2.00;1.90;;;;;;;;;;5074497;28;20380;-81
2022/08/03 03:34:13;;;;;;;2.40;2.20;;;;;;;;;;5074601;28;20380;-81
2022/08/03 03:36:39;;;;;;;1.92;1.83;;;;;;;;;;5074646;28;20395;-82
2022/08/03 03:39:05;;;;;;;2.08;1.98;;;;;;;;;;5074427;28;20408;-81
2022/08/03 03:41:32;;;;;;;2.28;1.70;;;;;;;;;;5074502;28;20379;-82
2022/08/03 03:43:58;;;;;;;2.20;1.95;;;;;;;;;;5074397;28;20398;-81
2022/08/03 03:46:24;;;;;;;1.98;1.88;;;;;;;;;;5074693;28;20771;-82
2022/08/03 03:48:50;;;;;;;2.58;1.90;;;;;;;;;;5074312;28;20394;-82
2022/08/03 03:51:17;;;;;;;1.90;1.80;;;;;;;;;;5074282;28;20384;-82
2022/08/03 03:53:56;;;;;;;1.93;1.83;;;;;;;;;;5074293;28;20442;-82
2022/08/03 03:56:22;;;;;;;1.95;1.83;;;;;;;;;;5049725;28;20443;-81
2022/08/03 03:58:48;;;;;;;1.83;1.63;;;;;;;;;;5074110;28;20538;-82
2022/08/03 04:01:15;;;;;;;2.00;1.90;;;;;;;;;;5074040;28;20736;-82
2022/08/03 04:03:41;;;;;;;2.20;2.05;;;;;;;;;;5074355;28;20376;-82
2022/08/03 04:11:37;;;;;;;2.00;1.90;;;;;;;;;;5073816;28;20432;-82
2022/08/03 04:14:11;;;;;;;2.37;2.17;;;;;;;;;;5073942;28;20763;-82
2022/08/03 04:16:39;;;;;;;2.00;1.90;;;;;;;;;;5073692;28;20387;-82
2022/08/03 04:19:07;;;;;;;2.03;1.90;;;;;;;;;;5073752;28;20438;-82
2022/08/03 04:21:35;;;;;;;2.20;2.00;;;;;;;;;;5072911;28;20380;-81
2022/08/03 04:24:03;;;;;;;2.10;2.00;;;;;;;;;;5073665;28;20402;-82
2022/08/03 04:26:33;;;;;;;2.05;1.95;;;;;;;;;;5073527;28;20765;-82
2022/08/03 04:29:00;;;;;;;1.80;1.70;;;;;;;;;;5067743;28;20403;-81
2022/08/03 04:31:26;;;;;;;2.03;1.92;;;;;;;;;;5036376;28;20387;-82
2022/08/03 04:33:53;;;;;;;3.15;2.10;;;;;;;;;;5050716;28;20468;-82
2022/08/03 04:36:21;;;;;;;2.08;1.90;;;;;;;;;;5062371;28;20387;-81
2022/08/03 04:39:06;;;;;;;1.88;1.77;;;;;;;;;;5072074;28;20476;-81
2022/08/03 04:41:34;;;;;;;2.30;2.10;;;;;;;;;;5073308;28;20383;-82
2022/08/03 04:44:01;;;;;;;1.80;1.70;;;;;;;;;;5072379;28;20734;-82
2022/08/03 04:46:29;;;;;;;3.13;2.08;;;;;;;;;;5073153;28;20387;-82
2022/08/03 04:48:55;;;;;;;2.15;2.00;;;;;;;;;;5073146;28;20380;-81
2022/08/03 04:51:21;;;;;;;2.00;1.90;;;;;;;;;;5072885;28;20379;-82
2022/08/03 04:53:47;;;;;;;2.20;2.10;;;;;;;;;;5073040;28;20376;-82
2022/08/03 04:56:13;;;;;;;2.83;2.10;;;;;;;;;;5072832;28;20437;-81
2022/08/03 04:58:39;;;;;;;2.30;2.10;;;;;;;;;;5072931;28;20765;-82
2022/08/03 05:01:05;;;;;;;2.10;1.90;;;;;;;;;;5073142;28;20372;-82
2022/08/03 05:03:31;;;;;;;2.55;1.90;;;;;;;;;;5071883;28;20380;-82
2022/08/03 05:05:57;;;;;;;3.00;2.10;;;;;;;;;;5055435;28;20377;-82
2022/08/03 05:08:23;;;;;;;2.10;1.90;;;;;;;;;;5070126;28;20730;-82
2022/08/03 05:10:49;;;;;;;1.95;1.75;;;;;;;;;;5073070;28;20854;-82
2022/08/03 05:13:15;;;;;;;2.03;1.83;;;;;;;;;;5072848;28;20388;-82
2022/08/03 05:15:41;;;;;;;1.88;1.77;;;;;;;;;;5054342;28;20374;-82
2022/08/03 05:18:07;;;;;;;2.40;1.88;;;;;;;;;;5065852;28;20896;-82
2022/08/03 05:20:33;;;;;;;2.70;1.85;;;;;;;;;;5070867;28;20394;-82
2022/08/03 05:23:00;;;;;;;2.15;1.95;;;;;;;;;;5063789;28;20384;-80
2022/08/03 05:25:27;;;;;;;2.40;2.20;;;;;;;;;;5072589;28;20406;-80
2022/08/03 05:27:53;;;;;;;1.67;1.58;;;;;;;;;;5063235;28;20373;-80
2022/08/03 05:30:19;;;;;;;1.80;1.70;;;;;;;;;;5066272;28;20379;-80
2022/08/03 05:32:45;;;;;;;1.73;1.63;;;;;;;;;;5051672;28;20388;-80
2022/08/03 05:35:11;;;;;;;3.05;2.30;;;;;;;;;;5064316;28;20403;-80
2022/08/03 05:37:37;;;;;;;2.60;1.80;;;;;;;;;;5071835;28;20383;-80
2022/08/03 05:40:03;;;;;;;2.00;1.90;;;;;;;;;;5058323;28;20871;-81
2022/08/03 05:42:29;;;;;;;1.75;1.63;;;;;;;;;;5062640;28;20478;-81
2022/08/03 05:44:55;;;;;;;1.92;1.80;;;;;;;;;;5072279;28;20836;-81
2022/08/03 05:47:21;;;;;;;2.17;1.77;;;;;;;;;;5058916;28;20409;-81
2022/08/03 05:49:48;;;;;;;1.80;1.70;;;;;;;;;;5052937;28;20463;-81
2022/08/03 05:52:14;;;;;;;2.35;1.85;;;;;;;;;;5054850;28;20428;-81
2022/08/03 05:54:40;;;;;;;1.80;1.70;;;;;;;;;;5069291;28;20416;-82
2022/08/03 05:57:06;;;;;;;1.63;1.50;;;;;;;;;;5062379;28;20750;-82
2022/08/03 05:59:32;;;;;;;3.15;1.98;;;;;;;;;;5053625;28;20411;-82
2022/08/03 06:01:58;;;;;;;2.47;1.88;;;;;;;;;;5048107;28;20386;-82
2022/08/03 06:04:24;;;;;;;1.77;1.67;;;;;;;;;;5064716;28;20442;-81
2022/08/03 06:06:50;;;;;;;2.50;1.65;;;;;;;;;;5062044;28;20380;-81
2022/08/03 06:09:16;;;;;;;2.00;1.85;;;;;;;;;;5066102;28;20433;-81
2022/08/03 06:11:42;;;;;;;1.80;1.70;;;;;;;;;;5058316;28;20385;-81
2022/08/03 06:14:08;;;;;;;2.03;1.77;;;;;;;;;;5062167;28;20471;-81
2022/08/03 06:16:34;;;;;;;1.60;1.50;;;;;;;;;;5065424;28;20482;-81
2022/08/03 06:19:00;;;;;;;2.95;2.00;;;;;;;;;;5071761;28;20399;-81
2022/08/03 06:21:26;;;;;;;1.80;1.65;;;;;;;;;;5070129;28;20868;-79
2022/08/03 06:23:52;;;;;;;2.55;1.52;;;;;;;;;;5071881;28;20372;-82
2022/08/03 06:26:18;;;;;;;3.55;1.77;;;;;;;;;;5053909;28;20381;-82
2022/08/03 06:28:45;;;;;;;2.00;1.70;;;;;;;;;;5068474;28;20733;-82
2022/08/03 06:31:11;;;;;;;2.08;1.60;;;;;;;;;;5071840;28;20868;-82
2022/08/03 06:33:37;;;;;;;1.98;1.67;;;;;;;;;;5071657;28;20391;-82
2022/08/03 06:36:03;;;;;;;3.47;1.85;;;;;;;;;;5061368;28;20415;-82
2022/08/03 06:38:29;;;;;;;1.70;1.60;;;;;;;;;;5055323;28;20439;-82
2022/08/03 06:40:55;;;;;;;2.23;2.10;;;;;;;;;;5058843;28;20437;-82
2022/08/03 06:43:23;;;;;;;2.70;1.90;;;;;;;;;;5063685;28;20837;-82
2022/08/03 06:45:49;;;;;;;1.87;1.77;;;;;;;;;;5074973;28;20419;-82
2022/08/03 06:48:15;;;;;;;1.80;1.70;;;;;;;;;;5074379;28;20419;-83
2022/08/03 06:50:43;;;;;;;1.73;1.63;;;;;;;;;;5062794;28;20501;-83
2022/08/03 06:53:09;;;;;;;1.95;1.60;;;;;;;;;;5075399;28;20462;-82
2022/08/03 06:55:35;;;;;;;1.70;1.60;;;;;;;;;;5065523;28;20380;-82
2022/08/03 06:58:01;;;;;;;2.40;1.70;;;;;;;;;;5071534;28;20829;-82
2022/08/03 07:00:27;;;;;;;2.20;1.70;;;;;;;;;;5075296;28;20876;-82
2022/08/03 07:02:53;;;;;;;1.70;1.60;;;;;;;;;;5071589;28;20376;-82
2022/08/03 07:05:20;;;;;;;2.67;1.50;;;;;;;;;;5075300;28;20804;-82
2022/08/03 07:07:46;;;;;;;1.70;1.50;;;;;;;;;;5075248;28;20386;-82
2022/08/03 07:10:12;;;;;;;1.55;1.45;;;;;;;;;;5075089;28;20880;-82
2022/08/03 07:12:40;;;;;;;2.58;1.80;;;;;;;;;;5067058;28;20391;-81
2022/08/03 07:15:06;;;;;;;1.95;1.73;;;;;;;;;;5075013;28;20462;-82
2022/08/03 07:17:34;;;;;;;2.47;1.70;;;;;;;;;;5068688;28;20368;-82
2022/08/03 07:20:01;;;;;;;1.60;1.50;;;;;;;;;;5074855;28;20911;-81
2022/08/03 07:22:27;;;;;;;2.58;1.95;;;;;;;;;;5074936;28;20896;-82
2022/08/03 07:24:53;;;;;;;1.70;1.60;;;;;;;;;;5074870;28;20732;-82
2022/08/03 07:27:20;;;;;;;1.60;1.50;;;;;;;;;;5074617;28;20455;-82
2022/08/03 07:29:46;;;;;;;2.50;1.70;;;;;;;;;;5074917;28;20386;-82
2022/08/03 07:32:12;;;;;;;2.17;1.83;;;;;;;;;;5074658;28;20395;-82
2022/08/03 07:34:38;;;;;;;2.22;2.03;;;;;;;;;;5074697;28;20513;-82
2022/08/03 07:37:03;;;;;;;2.20;1.70;;;;;;;;;;5066968;28;20839;-82
2022/08/03 07:39:29;;;;;;;1.77;1.67;;;;;;;;;;5074434;28;20403;-82
2022/08/03 07:41:55;;;;;;;2.78;1.80;;;;;;;;;;5072578;28;20382;-82
2022/08/03 07:44:21;;;;;;;1.77;1.50;;;;;;;;;;5070388;28;20779;-81
2022/08/03 07:46:49;;;;;;;1.85;1.75;;;;;;;;;;5074326;28;20376;-82
2022/08/03 07:49:15;;;;;;;2.70;1.90;;;;;;;;;;5063345;28;20385;-82
2022/08/03 07:51:41;;;;;;;2.05;1.85;;;;;;;;;;5072864;28;20427;-81
2022/08/03 07:54:08;;;;;;;1.95;1.73;;;;;;;;;;5073984;28;20372;-82
2022/08/03 07:56:35;;;;;;;2.70;1.70;;;;;;;;;;5074279;28;20933;-82
2022/08/03 07:59:01;;;;;;;3.10;1.90;;;;;;;;;;5074333;28;20924;-82
2022/08/03 08:01:28;;;;;;;4.33;1.80;;;;;;;;;;5070565;28;20841;-82
2022/08/03 08:03:54;;;;;;;3.47;1.92;;;;;;;;;;5059302;28;20488;-82
2022/08/03 08:06:21;;;;;;;4.00;2.20;;;;;;;;;;5050020;28;20391;-82
2022/08/03 08:08:47;;;;;;;4.10;2.13;;;;;;;;;;5051795;28;20875;-82
2022/08/03 08:11:13;;;;;;;3.38;1.92;;;;;;;;;;5062407;28;20378;-82
2022/08/03 08:13:39;;;;;;;4.88;2.00;;;;;;;;;;5050522;28;20389;-82
2022/08/03 08:16:05;;;;;;;2.90;1.77;;;;;;;;;;5069629;28;20382;-82
2022/08/03 08:18:31;;;;;;;5.65;2.10;;;;;;;;;;5073745;28;20400;-83
2022/08/03 08:20:57;;;;;;;3.58;2.00;;;;;;;;;;5073865;28;20425;-82
2022/08/03 08:23:24;;;;;;;2.40;2.00;;;;;;;;;;5073650;28;20737;-82
2022/08/03 08:25:50;;;;;;;2.15;1.70;;;;;;;;;;5061620;28;20370;-82
2022/08/03 08:28:17;;;;;;;5.40;1.88;;;;;;;;;;5056079;28;20435;-82
2022/08/03 08:30:43;;;;;;;3.83;1.80;;;;;;;;;;5063051;28;20380;-82
2022/08/03 08:33:09;;;;;;;3.20;1.90;;;;;;;;;;5073418;28;20379;-82
2022/08/03 08:35:35;;;;;;;2.53;1.90;;;;;;;;;;5073678;28;20390;-82
2022/08/03 08:38:01;;;;;;;2.20;1.90;;;;;;;;;;5073166;28;20408;-82
2022/08/03 08:40:27;;;;;;;2.90;2.03;;;;;;;;;;5053147;28;20446;-82
2022/08/03 08:42:53;;;;;;;3.03;1.90;;;;;;;;;;5065442;28;20368;-82
2022/08/03 08:45:20;;;;;;;2.58;1.80;;;;;;;;;;5073550;28;20367;-82
2022/08/03 08:47:47;;;;;;;4.35;2.10;;;;;;;;;;5073188;28;20764;-82
2022/08/03 08:50:13;;;;;;;2.40;1.97;;;;;;;;;;5070885;28;20471;-83
2022/08/03 08:52:43;;;;;;;3.00;2.25;;;;;;;;;;5060067;28;20432;-83
2022/08/03 08:55:10;;;;;;;3.53;2.20;;;;;;;;;;5053051;28;20431;-82
2022/08/03 08:57:38;;;;;;;2.63;2.25;;;;;;;;;;5067549;28;20384;-82
2022/08/03 09:00:06;;;;;;;3.58;1.95;;;;;;;;;;5053581;28;20401;-82
2022/08/03 09:02:32;;;;;;;1.70;1.42;;;;;;;;;;5061879;28;20885;-82
2022/08/03 09:04:58;;;;;;;2.27;1.30;;;;;;;;;;5045783;28;20444;-82
2022/08/03 09:07:24;;;;;;;3.40;1.70;;;;;;;;;;5063402;28;20387;-83
2022/08/03 09:09:50;;;;;;;1.33;1.20;;;;;;;;;;5059694;28;20463;-82
2022/08/03 09:12:16;;;;;;;3.30;1.70;;;;;;;;;;5068282;28;20413;-82
2022/08/03 09:14:42;;;;;;;1.83;1.52;;;;;;;;;;5065952;28;20382;-82
2022/08/03 09:17:08;;;;;;;1.48;1.38;;;;;;;;;;5065648;28;20466;-82
2022/08/03 09:19:35;;;;;;;1.88;1.50;;;;;;;;;;5069903;28;20772;-82
2022/08/03 09:22:09;;;;;;;2.05;1.60;;;;;;;;;;5063989;28;20407;-82
2022/08/03 09:24:36;;;;;;;1.33;1.23;;;;;;;;;;5072146;28;20371;-82
2022/08/03 09:27:04;;;;;;;1.50;1.40;;;;;;;;;;5046813;28;20739;-82
2022/08/03 09:29:31;;;;;;;1.38;1.20;;;;;;;;;;5052512;28;20394;-83
2022/08/03 09:32:02;;;;;;;1.45;1.35;;;;;;;;;;5067731;28;20452;-82
2022/08/03 09:34:28;;;;;;;1.50;1.20;;;;;;;;;;5072394;28;20372;-82
2022/08/03 09:36:56;;;;;;;1.67;1.20;;;;;;;;;;5055946;28;20397;-82
2022/08/03 09:39:23;;;;;;;1.20;1.10;;;;;;;;;;5072292;28;20967;-82
2022/08/03 09:42:06;;;;;;;1.27;1.15;;;;;;;;;;5065540;28;20508;-81
2022/08/03 09:44:41;;;;;;;1.88;1.30;;;;;;;;;;5066806;28;20383;-81
2022/08/03 09:47:08;;;;;;;1.42;1.33;;;;;;;;;;5064412;28;20383;-81
2022/08/03 09:49:34;;;;;;;1.40;1.20;;;;;;;;;;5072334;28;20379;-82
2022/08/03 09:52:02;;;;;;;1.20;1.10;;;;;;;;;;5072310;28;20376;-82
2022/08/03 09:54:31;;;;;;;1.30;1.20;;;;;;;;;;5056718;28;20734;-82
2022/08/03 09:56:58;;;;;;;1.70;1.30;;;;;;;;;;5063624;28;20740;-83
2022/08/03 09:59:31;;;;;;;1.30;1.13;;;;;;;;;;5059179;28;20474;-82
2022/08/03 10:01:58;;;;;;;1.50;1.30;;;;;;;;;;5063351;28;20734;-82
2022/08/03 10:04:25;;;;;;;1.20;1.10;;;;;;;;;;5056545;28;20368;-82
2022/08/03 10:07:06;;;;;;;1.10;1.00;;;;;;;;;;5064303;28;20573;-83
2022/08/03 10:09:32;;;;;;;1.48;1.20;;;;;;;;;;5071983;28;20376;-82
2022/08/03 10:12:06;;;;;;;1.10;1.00;;;;;;;;;;5070168;28;20407;-82
2022/08/03 10:14:33;;;;;;;1.60;1.20;;;;;;;;;;5071369;28;20368;-82
2022/08/03 10:16:59;;;;;;;1.20;1.10;;;;;;;;;;5051369;28;20393;-82
2022/08/03 10:19:25;;;;;;;1.75;1.25;;;;;;;;;;5060643;28;20494;-83
2022/08/03 10:21:55;;;;;;;1.33;1.15;;;;;;;;;;5071590;28;20403;-82
2022/08/03 10:24:26;;;;;;;1.63;1.30;;;;;;;;;;5063313;28;20392;-82
2022/08/03 10:26:53;;;;;;;1.63;1.17;;;;;;;;;;5054602;28;20385;-82
2022/08/03 10:29:23;;;;;;;1.23;1.13;;;;;;;;;;5055909;28;20479;-82
2022/08/03 10:31:52;;;;;;;0.98;0.90;;;;;;;;;;5057220;28;20385;-82
2022/08/03 10:34:22;;;;;;;1.23;1.13;;;;;;;;;;5056757;28;20386;-83
2022/08/03 10:36:49;;;;;;;1.80;1.00;;;;;;;;;;5057836;28;22530;-82
2022/08/03 10:39:18;;;;;;;1.88;1.25;;;;;;;;;;5055524;28;20416;-82
2022/08/03 10:41:45;;;;;;;1.00;0.90;;;;;;;;;;5054963;28;20522;-82
2022/08/03 10:44:18;;;;;;;1.52;1.10;;;;;;;;;;5056193;28;20385;-83
2022/08/03 10:46:44;;;;;;;2.17;1.20;;;;;;;;;;5057256;28;20377;-83
2022/08/03 10:49:14;;;;;;;1.02;0.93;;;;;;;;;;5055593;28;20450;-82
2022/08/03 10:51:41;;;;;;;1.38;0.93;;;;;;;;;;5064171;28;20385;-82
2022/08/03 10:54:09;;;;;;;1.45;1.02;;;;;;;;;;5055408;28;20472;-82
2022/08/03 10:59:39;;;;;;;0.97;0.97;;;;;;;;;;5061986;28;20974;-83
2022/08/03 11:02:08;;;;;;;1.50;0.90;;;;;;;;;;5062636;28;20724;-82
2022/08/03 11:04:34;;;;;;;1.70;0.82;;;;;;;;;;5054414;28;20456;-82
2022/08/03 11:07:16;;;;;;;1.20;0.80;;;;;;;;;;5055991;28;20383;-83
2022/08/03 11:09:49;;;;;;;0.95;0.90;;;;;;;;;;5055940;28;20380;-82
2022/08/03 11:12:20;;;;;;;1.10;0.80;;;;;;;;;;5055195;28;20412;-82
2022/08/03 11:14:47;;;;;;;1.20;1.10;;;;;;;;;;5052804;28;20390;-82
2022/08/03 11:17:13;;;;;;;2.13;1.00;;;;;;;;;;5053439;28;20377;-82
2022/08/03 11:19:44;;;;;;;1.42;0.90;;;;;;;;;;5057868;28;20411;-83
2022/08/03 11:22:10;;;;;;;1.70;0.95;;;;;;;;;;5056383;28;20396;-82
2022/08/03 11:24:36;;;;;;;0.75;0.73;;;;;;;;;;5057829;28;20387;-82
2022/08/03 11:27:17;;;;;;;0.70;0.70;;;;;;;;;;5055316;28;20376;-83
2022/08/03 11:30:04;;;;;;;1.02;0.93;;;;;;;;;;5055374;28;20472;-82
2022/08/03 11:32:37;;;;;;;2.47;0.90;;;;;;;;;;5053754;28;20377;-82
2022/08/03 11:35:13;;;;;;;1.55;0.90;;;;;;;;;;5053730;28;20830;-83
2022/08/03 11:37:58;;;;;;;0.93;0.90;;;;;;;;;;5056625;28;20470;-83
2022/08/03 11:40:45;;;;;;;1.40;1.00;;;;;;;;;;5050900;28;20386;-83
2022/08/03 11:43:17;;;;;;;1.08;0.90;;;;;;;;;;5055109;28;20785;-83
2022/08/03 11:45:55;;;;;;;1.17;0.95;;;;;;;;;;5054404;28;20376;-83
2022/08/03 11:48:22;;;;;;;1.40;1.13;;;;;;;;;;5054407;28;20881;-83
2022/08/03 11:50:49;;;;;;;1.35;1.02;;;;;;;;;;5055116;28;20378;-83
2022/08/03 11:53:16;;;;;;;1.45;1.00;;;;;;;;;;5054591;28;20381;-82
2022/08/03 11:55:45;;;;;;;2.42;1.08;;;;;;;;;;5054890;28;20909;-83
2022/08/03 11:58:15;;;;;;;0.88;0.88;;;;;;;;;;5065243;28;20422;-83
2022/08/03 12:00:41;;;;;;;0.80;0.80;;;;;;;;;;5073569;28;20380;-83
2022/08/03 12:03:08;;;;;;;1.25;1.10;;;;;;;;;;5053786;28;20377;-84
2022/08/03 12:05:35;;;;;;;1.20;1.10;;;;;;;;;;5053493;28;20909;-83
2022/08/03 12:08:01;;;;;;;1.42;1.08;;;;;;;;;;5061517;28;20380;-83
2022/08/03 12:10:28;;;;;;;1.20;0.80;;;;;;;;;;5066529;28;20430;-83
2022/08/03 12:12:58;;;;;;;1.05;0.90;;;;;;;;;;5060185;28;20857;-83
2022/08/03 12:15:25;;;;;;;1.95;1.10;;;;;;;;;;5061259;28;20377;-83
2022/08/03 12:17:51;;;;;;;1.20;0.80;;;;;;;;;;5068017;28;20926;-83
2022/08/03 12:20:21;;;;;;;1.17;0.80;;;;;;;;;;5065261;28;20403;-84
2022/08/03 12:22:47;;;;;;;2.08;1.20;;;;;;;;;;5058508;28;20467;-84
2022/08/03 12:25:23;;;;;;;2.20;1.23;;;;;;;;;;5063807;28;20548;-84
2022/08/03 12:27:51;;;;;;;0.80;0.80;;;;;;;;;;5067753;28;20430;-83
2022/08/03 12:30:17;;;;;;;1.13;1.02;;;;;;;;;;5073601;28;20884;-84
2022/08/03 12:32:43;;;;;;;1.70;1.10;;;;;;;;;;5073512;28;20387;-84
2022/08/03 12:35:10;;;;;;;2.25;0.88;;;;;;;;;;5073741;28;20498;-83
2022/08/03 12:37:36;;;;;;;1.85;1.33;;;;;;;;;;5066799;28;20396;-83
2022/08/03 12:40:05;;;;;;;1.90;1.40;;;;;;;;;;5073263;28;20924;-83
2022/08/03 12:42:31;;;;;;;1.70;1.10;;;;;;;;;;5072552;28;20521;-83
2022/08/03 12:44:57;;;;;;;1.88;1.13;;;;;;;;;;5069301;28;20851;-83
2022/08/03 12:47:23;;;;;;;1.02;0.88;;;;;;;;;;5063074;28;20379;-83
2022/08/03 12:49:50;;;;;;;1.40;1.30;;;;;;;;;;5057145;28;20400;-83
2022/08/03 12:52:17;;;;;;;1.33;1.10;;;;;;;;;;5066533;28;20933;-83
2022/08/03 12:54:53;;;;;;;2.45;1.70;;;;;;;;;;5066719;28;20386;-84
2022/08/03 12:57:19;;;;;;;1.13;1.00;;;;;;;;;;5064892;28;20384;-84
2022/08/03 12:59:47;;;;;;;1.00;1.00;;;;;;;;;;5063207;28;20507;-84
2022/08/03 13:02:19;;;;;;;1.00;0.90;;;;;;;;;;5069115;28;20388;-84
2022/08/03 13:04:46;;;;;;;1.10;0.90;;;;;;;;;;5065277;28;20457;-84
2022/08/03 13:07:12;;;;;;;1.20;0.90;;;;;;;;;;5056843;28;20381;-83
2022/08/03 13:09:45;;;;;;;0.82;0.82;;;;;;;;;;5070613;28;20881;-83
2022/08/03 13:12:18;;;;;;;0.80;0.80;;;;;;;;;;5068594;28;20396;-83
2022/08/03 13:14:46;;;;;;;0.77;0.77;;;;;;;;;;5053584;28;20439;-83
2022/08/03 13:17:12;;;;;;;0.80;0.80;;;;;;;;;;5072612;28;20427;-83
2022/08/03 13:19:39;;;;;;;2.10;0.93;;;;;;;;;;5067835;28;20438;-83
2022/08/03 13:22:26;;;;;;;1.15;0.98;;;;;;;;;;5055252;28;20809;-83
2022/08/03 13:25:00;;;;;;;1.92;1.00;;;;;;;;;;5049210;28;20393;-83
2022/08/03 13:27:26;;;;;;;1.25;1.00;;;;;;;;;;5053841;28;20438;-83
2022/08/03 13:29:52;;;;;;;1.00;0.90;;;;;;;;;;5059348;28;20464;-83
2022/08/03 13:32:18;;;;;;;1.30;1.20;;;;;;;;;;5052785;28;20388;-83
2022/08/03 13:34:45;;;;;;;1.30;1.20;;;;;;;;;;5051454;28;20385;-83
2022/08/03 13:37:11;;;;;;;1.52;1.30;;;;;;;;;;5061743;28;20919;-84
2022/08/03 13:39:38;;;;;;;1.40;1.10;;;;;;;;;;5072347;28;20427;-83
2022/08/03 13:42:04;;;;;;;1.00;1.00;;;;;;;;;;5072446;28;20391;-83
2022/08/03 13:44:30;;;;;;;1.50;1.02;;;;;;;;;;5072294;28;20856;-83
2022/08/03 13:46:56;;;;;;;1.20;1.00;;;;;;;;;;5065966;28;20385;-83
2022/08/03 13:49:22;;;;;;;1.73;0.90;;;;;;;;;;5053923;28;20874;-83
2022/08/03 13:51:49;;;;;;;1.10;1.00;;;;;;;;;;5070492;28;20470;-83
2022/08/03 13:54:15;;;;;;;0.80;0.80;;;;;;;;;;5072523;28;20406;-83
2022/08/03 13:56:41;;;;;;;1.08;0.90;;;;;;;;;;5059593;28;20854;-83
2022/08/03 13:59:07;;;;;;;1.40;1.00;;;;;;;;;;5056745;28;20428;-83
2022/08/03 14:01:33;;;;;;;1.25;0.90;;;;;;;;;;5052827;28;20401;-83
2022/08/03 14:03:59;;;;;;;1.73;1.00;;;;;;;;;;5052382;28;20382;-83
2022/08/03 14:06:25;;;;;;;1.37;1.00;;;;;;;;;;5060810;28;20387;-83
2022/08/03 14:08:51;;;;;;;0.90;0.80;;;;;;;;;;5068657;28;20380;-83
2022/08/03 14:11:18;;;;;;;1.58;1.02;;;;;;;;;;5059898;28;20895;-83
2022/08/03 14:13:44;;;;;;;0.85;0.85;;;;;;;;;;5059887;28;20793;-83
2022/08/03 14:16:10;;;;;;;1.23;0.90;;;;;;;;;;5065616;28;20426;-84
2022/08/03 14:18:36;;;;;;;0.90;0.90;;;;;;;;;;5062315;28;20431;-84
2022/08/03 14:21:03;;;;;;;1.02;0.90;;;;;;;;;;5071954;28;20410;-81
2022/08/03 14:23:29;;;;;;;0.87;0.83;;;;;;;;;;5072133;28;20379;-83
2022/08/03 14:25:55;;;;;;;1.00;0.88;;;;;;;;;;5057775;28;20382;-81
2022/08/03 14:28:21;;;;;;;1.13;1.02;;;;;;;;;;5071914;28;20741;-83
2022/08/03 14:30:47;;;;;;;1.95;1.10;;;;;;;;;;5059345;28;20381;-83
2022/08/03 14:33:14;;;;;;;1.90;1.20;;;;;;;;;;5052972;28;20386;-84
2022/08/03 14:35:40;;;;;;;3.17;1.10;;;;;;;;;;5052034;28;20381;-83
2022/08/03 14:38:06;;;;;;;1.07;1.07;;;;;;;;;;5057161;28;20457;-83
2022/08/03 14:40:32;;;;;;;1.57;1.00;;;;;;;;;;5052520;28;20390;-83
2022/08/03 14:42:58;;;;;;;2.10;1.00;;;;;;;;;;5067452;28;20737;-84
2022/08/03 14:45:24;;;;;;;1.85;1.08;;;;;;;;;;5071838;28;20384;-83
2022/08/03 14:47:50;;;;;;;1.60;1.10;;;;;;;;;;5067983;28;20404;-83
2022/08/03 14:50:16;;;;;;;1.90;1.10;;;;;;;;;;5057062;28;20575;-83
2022/08/03 14:52:42;;;;;;;1.52;1.10;;;;;;;;;;5052288;28;20389;-83
2022/08/03 14:55:08;;;;;;;1.30;1.10;;;;;;;;;;5052302;28;20392;-82